createdAt,value
2022-09-10T00:01:20.275Z,75.40
2022-09-10T00:03:49.968Z,75.40
2022-09-10T00:06:19.485Z,75.40
2022-09-10T00:08:49.209Z,75.40
2022-09-10T00:11:17.307Z,75.40
2022-09-10T00:13:45.516Z,75.40
2022-09-10T00:16:18.068Z,75.60
2022-09-10T00:18:47.596Z,75.60
2022-09-10T00:21:17.965Z,75.50
2022-09-10T00:23:46.204Z,75.50
2022-09-10T00:26:17.480Z,75.60
2022-09-10T00:28:45.596Z,75.60
2022-09-10T00:31:15.595Z,75.60
2022-09-10T00:33:44.824Z,75.60
2022-09-10T00:36:17.420Z,75.60
2022-09-10T00:38:45.353Z,75.90
2022-09-10T00:41:14.525Z,75.90
2022-09-10T00:43:52.760Z,75.90
2022-09-10T00:46:30.272Z,76.00
2022-09-10T00:49:01.198Z,76.20
2022-09-10T00:51:32.913Z,76.20
2022-09-10T00:54:01.990Z,76.30
2022-09-10T00:56:31.026Z,76.20
2022-09-10T00:58:59.242Z,76.20
2022-09-10T01:01:28.731Z,76.20
2022-09-10T01:03:57.495Z,76.10
2022-09-10T01:06:25.391Z,76.20
2022-09-10T01:08:53.499Z,76.20
2022-09-10T01:11:45.933Z,76.30
2022-09-10T01:14:39.543Z,76.30
2022-09-10T01:17:17.073Z,76.40
2022-09-10T01:20:14.142Z,76.40
2022-09-10T01:23:03.997Z,76.50
2022-09-10T01:25:44.513Z,76.60
2022-09-10T01:28:19.706Z,76.70
2022-09-10T01:30:55.111Z,76.80
2022-09-10T01:33:32.090Z,76.70
2022-09-10T01:36:06.848Z,76.70
2022-09-10T01:38:38.458Z,76.80
2022-09-10T01:41:07.472Z,76.80
2022-09-10T01:43:44.368Z,76.80
2022-09-10T01:46:26.040Z,76.80
2022-09-10T01:49:10.103Z,76.90
2022-09-10T01:51:53.749Z,76.90
2022-09-10T01:54:38.165Z,77.00
2022-09-10T01:57:17.126Z,77.00
2022-09-10T01:59:53.713Z,77.00
2022-09-10T02:02:26.867Z,77.10
2022-09-10T02:04:55.840Z,77.00
2022-09-10T02:07:26.471Z,77.20
2022-09-10T02:09:55.709Z,77.10
2022-09-10T02:12:25.011Z,77.00
2022-09-10T02:15:00.056Z,77.00
2022-09-10T02:17:38.410Z,77.00
2022-09-10T02:20:10.101Z,77.10
2022-09-10T02:22:40.417Z,77.10
2022-09-10T02:25:10.265Z,77.20
2022-09-10T02:27:40.473Z,77.20
2022-09-10T02:30:11.206Z,77.20
2022-09-10T02:32:39.097Z,77.20
2022-09-10T02:35:08.386Z,77.30
2022-09-10T02:37:36.579Z,77.30
2022-09-10T02:40:05.776Z,77.30
2022-09-10T02:42:34.100Z,77.30
2022-09-10T02:45:03.011Z,77.30
2022-09-10T02:47:32.315Z,77.40
2022-09-10T02:50:01.987Z,77.40
2022-09-10T02:52:30.158Z,77.40
2022-09-10T02:54:58.097Z,77.40
2022-09-10T02:57:26.024Z,77.40
2022-09-10T02:59:56.379Z,77.40
2022-09-10T03:02:25.686Z,77.40
2022-09-10T03:04:56.730Z,77.50
2022-09-10T03:07:26.119Z,77.40
2022-09-10T03:09:54.289Z,77.40
2022-09-10T03:12:22.209Z,77.40
2022-09-10T03:14:50.423Z,77.50
2022-09-10T03:17:18.968Z,77.40
2022-09-10T03:19:48.219Z,77.30
2022-09-10T03:22:17.507Z,77.30
2022-09-10T03:24:47.118Z,77.30
2022-09-10T03:27:16.333Z,77.30
2022-09-10T03:29:45.247Z,77.40
2022-09-10T03:32:14.841Z,77.40
2022-09-10T03:34:42.971Z,77.40
2022-09-10T03:37:11.037Z,77.30
2022-09-10T03:39:40.420Z,77.40
2022-09-10T03:42:08.596Z,77.40
2022-09-10T03:44:36.519Z,77.40
2022-09-10T03:47:04.948Z,77.40
2022-09-10T03:49:33.581Z,77.50
2022-09-10T03:52:02.681Z,77.50
2022-09-10T03:54:34.420Z,77.50
2022-09-10T03:57:03.702Z,77.50
2022-09-10T03:59:32.784Z,77.50
2022-09-10T04:02:03.103Z,77.50
2022-09-10T04:04:32.311Z,77.60
2022-09-10T04:07:01.005Z,77.60
2022-09-10T04:09:28.939Z,77.60
2022-09-10T04:11:56.884Z,77.60
2022-09-10T04:14:27.053Z,77.60
2022-09-10T04:16:55.568Z,77.60
2022-09-10T04:19:23.879Z,77.60
2022-09-10T04:21:52.952Z,77.60
2022-09-10T04:24:21.130Z,77.70
2022-09-10T04:26:49.223Z,77.70
2022-09-10T04:29:19.134Z,77.70
2022-09-10T04:31:48.755Z,77.70
2022-09-10T04:34:19.176Z,77.70
2022-09-10T04:36:47.280Z,77.60
2022-09-10T04:39:15.433Z,77.70
2022-09-10T04:41:43.901Z,77.70
2022-09-10T04:44:12.017Z,77.70
2022-09-10T04:46:41.293Z,77.80
2022-09-10T04:49:13.072Z,77.80
2022-09-10T04:51:40.983Z,77.90
2022-09-10T04:54:08.958Z,77.80
2022-09-10T04:56:38.772Z,77.90
2022-09-10T04:59:06.781Z,78.00
2022-09-10T05:01:37.975Z,78.00
2022-09-10T05:04:06.607Z,78.00
2022-09-10T05:06:38.839Z,78.00
2022-09-10T05:09:11.506Z,78.00
2022-09-10T05:11:40.529Z,78.00
2022-09-10T05:14:08.499Z,78.10
2022-09-10T05:16:37.030Z,78.00
2022-09-10T05:19:06.221Z,78.00
2022-09-10T05:21:42.509Z,78.00
2022-09-10T05:24:10.709Z,78.10
2022-09-10T05:26:39.188Z,78.10
2022-09-10T05:29:07.515Z,78.10
2022-09-10T05:31:35.789Z,78.10
2022-09-10T05:34:04.616Z,78.10
2022-09-10T05:36:33.230Z,78.10
2022-09-10T05:39:03.597Z,78.10
2022-09-10T05:41:34.614Z,78.20
2022-09-10T05:44:03.077Z,78.10
2022-09-10T05:46:31.126Z,78.10
2022-09-10T05:49:03.562Z,78.10
2022-09-10T05:51:31.768Z,78.10
2022-09-10T05:54:05.338Z,78.20
2022-09-10T05:56:34.723Z,78.20
2022-09-10T05:59:03.957Z,78.20
2022-09-10T06:01:33.159Z,78.10
2022-09-10T06:04:03.129Z,78.10
2022-09-10T06:06:32.269Z,78.10
2022-09-10T06:09:08.066Z,78.10
2022-09-10T06:11:45.566Z,78.10
2022-09-10T06:14:14.881Z,78.10
2022-09-10T06:16:43.190Z,78.20
2022-09-10T06:19:12.322Z,78.20
2022-09-10T06:21:40.296Z,78.20
2022-09-10T06:24:09.907Z,78.10
2022-09-10T06:26:39.544Z,78.20
2022-09-10T06:29:12.439Z,78.20
2022-09-10T06:31:42.677Z,78.30
2022-09-10T06:34:11.487Z,78.40
2022-09-10T06:36:39.637Z,78.40
2022-09-10T06:39:09.787Z,78.30
2022-09-10T06:41:49.600Z,78.30
2022-09-10T06:44:36.345Z,78.40
2022-09-10T06:50:10.588Z,78.50
2022-09-10T06:52:40.852Z,78.50
2022-09-10T06:55:12.992Z,78.50
2022-09-10T06:57:44.343Z,78.50
2022-09-10T07:00:15.205Z,78.50
2022-09-10T07:02:46.181Z,78.60
2022-09-10T07:05:14.224Z,78.50
2022-09-10T07:07:43.434Z,78.60
2022-09-10T07:10:12.973Z,78.70
2022-09-10T07:12:40.888Z,78.70
2022-09-10T07:15:11.332Z,78.80
2022-09-10T07:17:39.428Z,78.70
2022-09-10T07:20:09.539Z,78.90
2022-09-10T07:22:46.985Z,79.00
2022-09-10T07:25:17.665Z,79.10
2022-09-10T07:28:07.057Z,79.00
2022-09-10T07:30:37.729Z,79.10
2022-09-10T07:33:05.880Z,79.10
2022-09-10T07:35:35.718Z,79.00
2022-09-10T07:38:04.962Z,79.00
2022-09-10T07:40:35.998Z,79.10
2022-09-10T07:43:04.045Z,79.20
2022-09-10T07:45:32.083Z,79.20
2022-09-10T07:48:03.703Z,79.10
2022-09-10T07:50:36.356Z,79.10
2022-09-10T07:53:05.372Z,79.00
2022-09-10T07:55:34.786Z,78.90
2022-09-10T07:58:02.937Z,78.90
2022-09-10T08:00:32.204Z,78.90
2022-09-10T08:03:06.002Z,78.90
2022-09-10T08:05:34.923Z,78.90
2022-09-10T08:08:03.310Z,78.90
2022-09-10T08:10:31.320Z,79.10
2022-09-10T08:13:01.256Z,79.10
2022-09-10T08:15:29.189Z,79.10
2022-09-10T08:18:00.786Z,79.30
2022-09-10T08:20:29.525Z,79.40
2022-09-10T08:22:59.668Z,79.40
2022-09-10T08:25:27.607Z,79.60
2022-09-10T08:27:57.731Z,79.60
2022-09-10T08:30:28.904Z,79.60
2022-09-10T08:32:57.167Z,79.80
2022-09-10T08:35:25.170Z,79.80
2022-09-10T08:37:53.492Z,79.90
2022-09-10T08:40:23.696Z,80.00
2022-09-10T08:42:53.118Z,80.00
2022-09-10T08:45:27.282Z,80.10
2022-09-10T08:48:01.340Z,80.20
2022-09-10T08:50:40.117Z,80.40
2022-09-10T08:53:25.888Z,80.50
2022-09-10T08:55:57.711Z,80.60
2022-09-10T08:58:31.677Z,80.70
2022-09-10T09:01:04.843Z,80.70
2022-09-10T09:03:37.798Z,80.70
2022-09-10T09:06:08.492Z,80.70
2022-09-10T09:08:48.349Z,80.90
2022-09-10T09:11:30.072Z,81.10
2022-09-10T09:14:14.560Z,81.30
2022-09-10T09:17:02.033Z,81.40
2022-09-10T09:19:34.725Z,81.30
2022-09-10T09:22:12.503Z,81.30
2022-09-10T09:24:54.812Z,81.40
2022-09-10T09:27:22.758Z,81.40
2022-09-10T09:29:57.791Z,81.30
2022-09-10T09:32:26.945Z,81.20
2022-09-10T09:34:58.275Z,81.10
2022-09-10T09:37:29.379Z,81.10
2022-09-10T09:40:08.811Z,81.20
2022-09-10T09:42:43.639Z,81.30
2022-09-10T09:45:22.192Z,81.20
2022-09-10T09:47:51.116Z,81.10
2022-09-10T09:50:20.495Z,81.10
2022-09-10T09:52:48.936Z,81.00
2022-09-10T09:55:26.584Z,81.00
2022-09-10T09:58:28.699Z,80.90
2022-09-10T10:01:12.960Z,81.00
2022-09-10T10:03:52.253Z,81.00
2022-09-10T10:06:22.880Z,80.90
2022-09-10T10:08:57.930Z,80.90
2022-09-10T10:11:48.292Z,80.90
2022-09-10T10:14:41.546Z,80.90
2022-09-10T10:17:34.360Z,80.70
2022-09-10T10:20:08.954Z,80.30
2022-09-10T10:22:38.495Z,80.20
2022-09-10T10:25:28.324Z,80.20
2022-09-10T10:27:56.456Z,80.10
2022-09-10T10:30:25.422Z,80.10
2022-09-10T10:32:57.074Z,79.80
2022-09-10T10:35:48.139Z,79.80
2022-09-10T10:38:31.057Z,78.90
2022-09-10T10:41:33.232Z,78.90
2022-09-10T10:44:14.830Z,78.80
2022-09-10T10:46:50.829Z,78.70
2022-09-10T10:49:31.786Z,78.60
2022-09-10T10:52:07.728Z,78.60
2022-09-10T10:54:59.687Z,78.60
2022-09-10T10:57:34.519Z,78.40
2022-09-10T11:00:07.480Z,78.40
2022-09-10T11:02:41.654Z,78.10
2022-09-10T11:05:25.724Z,78.00
2022-09-10T11:07:56.403Z,77.80
2022-09-10T11:10:29.563Z,77.90
2022-09-10T11:13:06.712Z,77.80
2022-09-10T11:15:43.109Z,77.40
2022-09-10T11:18:19.957Z,77.50
2022-09-10T11:21:00.130Z,77.40
2022-09-10T11:23:32.950Z,77.20
2022-09-10T11:26:07.338Z,77.10
2022-09-10T11:28:40.817Z,76.70
2022-09-10T11:31:15.051Z,76.30
2022-09-10T11:33:53.260Z,75.90
2022-09-10T11:36:28.404Z,74.80
2022-09-10T11:39:07.650Z,75.30
2022-09-10T11:41:42.121Z,75.40
2022-09-10T11:44:32.364Z,75.20
2022-09-10T11:47:07.857Z,75.20
2022-09-10T11:49:44.433Z,75.10
2022-09-10T11:52:13.668Z,74.80
2022-09-10T11:54:42.279Z,74.90
2022-09-10T11:57:17.124Z,75.00
2022-09-10T12:00:15.703Z,74.90
2022-09-10T12:03:26.593Z,74.90
2022-09-10T12:06:01.079Z,74.90
2022-09-10T12:08:56.895Z,74.70
2022-09-10T12:11:33.558Z,74.50
2022-09-10T12:14:07.334Z,74.10
2022-09-10T12:16:39.195Z,74.10
2022-09-10T12:19:16.485Z,74.00
2022-09-10T12:21:50.652Z,74.00
2022-09-10T12:24:31.056Z,73.80
2022-09-10T12:27:01.514Z,73.50
2022-09-10T12:29:35.657Z,73.50
2022-09-10T12:32:36.859Z,73.60
2022-09-10T12:35:47.716Z,73.60
2022-09-10T12:38:47.510Z,73.60
2022-09-10T12:41:57.528Z,73.40
2022-09-10T12:44:47.537Z,73.10
2022-09-10T12:47:40.052Z,73.10
2022-09-10T12:50:20.464Z,73.50
2022-09-10T12:53:13.250Z,74.10
2022-09-10T12:55:53.661Z,74.20
2022-09-10T12:58:27.803Z,74.80
2022-09-10T13:01:10.801Z,75.10
2022-09-10T13:03:48.156Z,75.60
2022-09-10T13:06:16.122Z,75.80
2022-09-10T13:08:47.610Z,76.00
2022-09-10T13:11:20.604Z,76.40
2022-09-10T13:14:00.393Z,76.80
2022-09-10T13:16:40.206Z,77.10
2022-09-10T13:20:00.955Z,77.10
2022-09-10T13:22:36.146Z,77.20
2022-09-10T13:25:25.267Z,77.30
2022-09-10T13:27:53.448Z,77.30
2022-09-10T13:30:24.120Z,77.40
2022-09-10T13:32:55.322Z,77.50
2022-09-10T13:36:05.589Z,77.50
2022-09-10T13:39:03.051Z,77.50
2022-09-10T13:42:07.433Z,77.30
2022-09-10T13:44:49.676Z,77.00
2022-09-10T13:47:25.528Z,76.80
2022-09-10T13:49:57.266Z,76.60
2022-09-10T13:52:31.793Z,76.70
2022-09-10T13:55:01.779Z,76.60
2022-09-10T13:57:32.681Z,76.60
2022-09-10T14:00:08.563Z,76.60
2022-09-10T14:02:44.993Z,76.50
2022-09-10T14:05:30.033Z,76.40
2022-09-10T14:08:02.702Z,76.30
2022-09-10T14:10:31.995Z,76.50
2022-09-10T14:13:00.671Z,76.40
2022-09-10T14:15:35.266Z,76.30
2022-09-10T14:18:05.275Z,76.20
2022-09-10T14:20:35.622Z,76.00
2022-09-10T14:23:06.757Z,75.90
2022-09-10T14:25:37.316Z,75.90
2022-09-10T14:28:24.876Z,75.80
2022-09-10T14:31:14.827Z,75.80
2022-09-10T14:33:44.241Z,75.80
2022-09-10T14:36:17.434Z,75.70
2022-09-10T14:38:54.363Z,75.40
2022-09-10T14:41:25.014Z,75.30
2022-09-10T14:44:15.437Z,75.10
2022-09-10T14:46:53.102Z,75.00
2022-09-10T14:49:27.850Z,74.90
2022-09-10T14:51:57.184Z,75.10
2022-09-10T14:54:25.455Z,75.10
2022-09-10T14:56:54.980Z,74.80
2022-09-10T14:59:29.675Z,74.60
2022-09-10T15:01:58.475Z,74.50
2022-09-10T15:04:30.213Z,74.40
2022-09-10T15:06:59.707Z,74.30
2022-09-10T15:09:29.060Z,74.10
2022-09-10T15:12:01.759Z,74.20
2022-09-10T15:14:30.548Z,74.20
2022-09-10T15:16:58.506Z,74.20
2022-09-10T15:19:28.873Z,74.20
2022-09-10T15:21:57.214Z,73.90
2022-09-10T15:24:26.158Z,73.80
2022-09-10T15:26:56.444Z,73.90
2022-09-10T15:29:26.043Z,73.90
2022-09-10T15:31:59.322Z,73.50
2022-09-10T15:34:28.649Z,73.50
2022-09-10T15:36:56.602Z,73.40
2022-09-10T15:39:24.519Z,73.30
2022-09-10T15:41:52.619Z,73.10
2022-09-10T15:44:24.303Z,73.20
2022-09-10T15:46:52.619Z,73.00
2022-09-10T15:49:20.626Z,73.00
2022-09-10T15:51:49.907Z,72.90
2022-09-10T15:54:17.851Z,72.90
2022-09-10T15:56:46.011Z,72.90
2022-09-10T15:59:16.487Z,72.90
2022-09-10T16:01:44.572Z,72.80
2022-09-10T16:04:12.550Z,72.70
2022-09-10T16:06:40.971Z,72.60
2022-09-10T16:09:12.449Z,72.60
2022-09-10T16:11:42.280Z,72.50
2022-09-10T16:14:13.207Z,72.40
2022-09-10T16:16:41.836Z,72.50
2022-09-10T16:19:11.815Z,72.30
2022-09-10T16:21:40.110Z,72.20
2022-09-10T16:24:08.576Z,72.20
2022-09-10T16:26:39.566Z,72.10
2022-09-10T16:29:12.994Z,72.20
2022-09-10T16:31:41.615Z,72.00
2022-09-10T16:34:13.432Z,71.90
2022-09-10T16:36:41.373Z,71.80
2022-09-10T16:39:12.445Z,71.90
2022-09-10T16:41:43.279Z,71.90
2022-09-10T16:44:12.101Z,71.90
2022-09-10T16:46:40.308Z,72.00
2022-09-10T16:49:12.439Z,72.00
2022-09-10T16:51:40.888Z,72.20
2022-09-10T16:54:09.258Z,72.20
2022-09-10T16:56:39.627Z,72.20
2022-09-10T16:59:14.815Z,72.40
2022-09-10T17:01:44.321Z,72.50
2022-09-10T17:04:18.823Z,72.60
2022-09-10T17:06:48.148Z,72.70
2022-09-10T17:09:16.388Z,72.70
2022-09-10T17:11:44.302Z,72.80
2022-09-10T17:14:13.536Z,72.90
2022-09-10T17:16:43.524Z,72.90
2022-09-10T17:19:12.671Z,72.90
2022-09-10T17:21:42.716Z,73.00
2022-09-10T17:24:12.771Z,73.10
2022-09-10T17:26:41.909Z,73.10
2022-09-10T17:29:12.596Z,73.20
2022-09-10T17:31:42.780Z,73.20
2022-09-10T17:34:12.343Z,73.40
2022-09-10T17:36:41.263Z,73.50
2022-09-10T17:39:09.387Z,73.60
2022-09-10T17:41:37.459Z,73.70
2022-09-10T17:44:05.342Z,74.00
2022-09-10T17:46:35.147Z,74.00
2022-09-10T17:49:05.486Z,74.20
2022-09-10T17:51:35.600Z,74.30
2022-09-10T17:54:03.833Z,74.40
2022-09-10T17:56:32.195Z,74.50
2022-09-10T17:59:02.656Z,74.60
2022-09-10T18:01:32.690Z,74.70
2022-09-10T18:04:01.078Z,74.80
2022-09-10T18:06:30.506Z,74.80
2022-09-10T18:09:00.282Z,75.00
2022-09-10T18:11:30.314Z,75.10
2022-09-10T18:14:00.395Z,75.20
2022-09-10T18:16:31.122Z,75.40
2022-09-10T18:19:01.393Z,75.60
2022-09-10T18:21:32.861Z,75.70
2022-09-10T18:24:02.385Z,75.80
2022-09-10T18:26:32.051Z,75.90
2022-09-10T18:29:02.783Z,76.00
2022-09-10T18:31:32.695Z,76.20
2022-09-10T18:34:01.715Z,76.20
2022-09-10T18:36:31.582Z,76.40
2022-09-10T18:39:02.835Z,76.60
2022-09-10T18:41:32.787Z,76.60
2022-09-10T18:44:04.052Z,76.80
2022-09-10T18:46:33.223Z,77.00
2022-09-10T18:49:02.319Z,77.50
2022-09-10T18:51:31.903Z,77.50
2022-09-10T18:54:01.328Z,77.90
2022-09-10T18:56:31.716Z,78.00
2022-09-10T18:59:01.461Z,78.30
2022-09-10T19:01:30.968Z,78.50
2022-09-10T19:03:59.150Z,78.60
2022-09-10T19:06:28.775Z,78.70
2022-09-10T19:09:00.649Z,78.80
2022-09-10T19:11:32.974Z,79.00
2022-09-10T19:14:02.298Z,79.10
2022-09-10T19:16:32.480Z,79.20
2022-09-10T19:19:02.275Z,79.20
2022-09-10T19:21:32.796Z,79.30
2022-09-10T19:24:03.167Z,79.40
2022-09-10T19:26:32.891Z,79.50
2022-09-10T19:29:02.402Z,79.60
2022-09-10T19:31:32.586Z,79.60
2022-09-10T19:34:02.987Z,79.70
2022-09-10T19:36:34.079Z,79.80
2022-09-10T19:39:05.115Z,79.80
2022-09-10T19:41:33.987Z,79.90
2022-09-10T19:44:02.498Z,80.00
2022-09-10T19:46:31.031Z,80.20
2022-09-10T19:49:00.699Z,80.10
2022-09-10T19:51:31.131Z,80.20
2022-09-10T19:54:00.369Z,80.20
2022-09-10T19:56:32.203Z,80.40
2022-09-10T19:59:02.512Z,80.50
2022-09-10T20:01:32.434Z,80.50
2022-09-10T20:04:02.048Z,80.50
2022-09-10T20:06:30.652Z,80.50
2022-09-10T20:08:59.167Z,80.60
2022-09-10T20:11:31.335Z,80.70
2022-09-10T20:14:01.339Z,80.70
2022-09-10T20:16:29.932Z,80.80
2022-09-10T20:18:58.199Z,80.80
2022-09-10T20:21:27.935Z,80.80
2022-09-10T20:23:56.716Z,80.90
2022-09-10T20:26:26.115Z,81.00
2022-09-10T20:28:57.883Z,81.10
2022-09-10T20:31:27.594Z,81.00
2022-09-10T20:33:57.375Z,81.00
2022-09-10T20:36:26.428Z,81.00
2022-09-10T20:38:54.890Z,81.10
2022-09-10T20:41:23.529Z,81.00
2022-09-10T20:43:52.861Z,81.00
2022-09-10T20:46:23.564Z,81.10
2022-09-10T20:48:52.713Z,81.20
2022-09-10T20:51:21.475Z,81.20
2022-09-10T20:53:49.714Z,81.20
2022-09-10T20:56:19.248Z,81.20
2022-09-10T20:58:48.482Z,81.20
2022-09-10T21:01:18.871Z,81.30
2022-09-10T21:03:50.088Z,81.40
2022-09-10T21:06:20.420Z,81.40
2022-09-10T21:08:49.320Z,81.40
2022-09-10T21:11:18.915Z,81.50
2022-09-10T21:13:48.277Z,81.50
2022-09-10T21:16:18.946Z,81.50
2022-09-10T21:18:54.278Z,81.50
2022-09-10T21:21:25.336Z,81.60
2022-09-10T21:23:54.442Z,81.60
2022-09-10T21:26:25.092Z,81.50
2022-09-10T21:28:54.186Z,81.40
2022-09-10T21:31:22.472Z,81.50
2022-09-10T21:33:52.202Z,81.50
2022-09-10T21:36:21.551Z,81.50
2022-09-10T21:38:50.446Z,81.40
2022-09-10T21:41:21.485Z,81.40
2022-09-10T21:43:49.381Z,81.40
2022-09-10T21:46:17.302Z,81.50
2022-09-10T21:48:45.338Z,81.50
2022-09-10T21:51:16.267Z,81.50
2022-09-10T21:53:45.466Z,81.50
2022-09-10T21:56:14.997Z,81.50
2022-09-10T21:58:44.672Z,81.50
2022-09-10T22:01:13.778Z,81.60
2022-09-10T22:03:42.148Z,81.60
2022-09-10T22:06:12.882Z,81.60
2022-09-10T22:08:44.099Z,81.70
2022-09-10T22:11:15.312Z,81.70
2022-09-10T22:13:43.769Z,81.70
2022-09-10T22:16:13.232Z,81.80
2022-09-10T22:18:41.574Z,81.70
2022-09-10T22:21:10.131Z,81.70
2022-09-10T22:23:39.741Z,81.70
2022-09-10T22:26:10.629Z,81.60
2022-09-10T22:28:39.082Z,81.70
2022-09-10T22:31:12.178Z,81.70
2022-09-10T22:33:42.006Z,81.70
2022-09-10T22:36:15.082Z,81.70
2022-09-10T22:38:43.809Z,81.70
2022-09-10T22:41:14.176Z,81.80
2022-09-10T22:43:42.773Z,81.80
2022-09-10T22:46:11.956Z,81.70
2022-09-10T22:48:42.433Z,81.70
2022-09-10T22:51:12.533Z,81.80
2022-09-10T22:53:41.842Z,81.80
2022-09-10T22:56:12.063Z,81.90
2022-09-10T22:58:41.072Z,81.80
2022-09-10T23:01:10.879Z,81.80
2022-09-10T23:03:39.428Z,81.90
2022-09-10T23:06:09.600Z,81.90
2022-09-10T23:08:38.036Z,82.00
2022-09-10T23:11:15.194Z,82.00
2022-09-10T23:13:44.052Z,82.10
2022-09-10T23:16:13.809Z,82.10
2022-09-10T23:18:43.550Z,82.10
2022-09-10T23:21:11.888Z,82.10
2022-09-10T23:23:39.817Z,82.10
2022-09-10T23:26:09.368Z,82.20
2022-09-10T23:28:39.140Z,82.30
2022-09-10T23:31:09.270Z,82.30
2022-09-10T23:33:37.472Z,82.20
2022-09-10T23:36:05.409Z,82.20
2022-09-10T23:38:35.530Z,82.30
2022-09-10T23:41:04.375Z,82.30
2022-09-10T23:43:32.848Z,82.30
2022-09-10T23:46:02.258Z,82.40
2022-09-10T23:48:30.615Z,82.40
2022-09-10T23:50:58.682Z,82.50
2022-09-10T23:53:26.649Z,82.50
2022-09-10T23:55:54.763Z,82.60
2022-09-10T23:58:23.153Z,82.70
